CheckWX is a tool to help pilots better visualize weather data.  It is not intended as a substitute for an official pre-flight weather briefing.

22:23:13 UTC

KPAH TAF
Barkley Regional Airport
Paducah, Kentucky, USA
KPAH 221726Z 2218/2318 25014G20KT P6SM SKC FM221900 25014G22KT P6SM SKC FM222300 26008KT P6SM SKC FM230500 23005KT P6SM SKC FM231600 21010G18KT P6SM SKC

Oct-22@
18:00 UTC

Oct-22 @ 18:00 UTC

Oct-22@
19:00 UTC

Oct-22 @ 19:00 UTC

KPAH 221726Z 2218/2318 25014G20KT P6SM SKC

Expired

Wind
  • 250° at 14 KTS
  • {Gusting to 20 KTS
Cloud Levels
  • Clear skies

Oct-22@
19:00 UTC

Oct-22 @ 19:00 UTC

Oct-22@
23:00 UTC

Oct-22 @ 23:00 UTC

FM221900 25014G22KT P6SM SKC

From

From Standard forecast or significant change

Wind
  • 250° at 14 KTS
  • {Gusting to 22 KTS
Cloud Levels
  • Clear skies

Oct-22@
23:00 UTC

Oct-22 @ 23:00 UTC

Oct-23@
05:00 UTC

Oct-23 @ 05:00 UTC

FM222300 26008KT P6SM SKC

From

From Standard forecast or significant change

Wind
  • 260° at 8 KTS
Cloud Levels
  • Clear skies

Oct-23@
05:00 UTC

Oct-23 @ 05:00 UTC

Oct-23@
16:00 UTC

Oct-23 @ 16:00 UTC

FM230500 23005KT P6SM SKC

From

From Standard forecast or significant change

Wind
  • 230° at 5 KTS
Cloud Levels
  • Clear skies

Oct-23@
16:00 UTC

Oct-23 @ 16:00 UTC

Oct-23@
18:00 UTC

Oct-23 @ 18:00 UTC

FM231600 21010G18KT P6SM SKC

From

From Standard forecast or significant change

Wind
  • 210° at 10 KTS
  • {Gusting to 18 KTS
Cloud Levels
  • Clear skies